Time;durP1;ratioP1;P1;durP2;ratioP2;P2;SDS_P1;SDS_P2;PMS_P1;PMS_P2;Temp;Humidity;BMP_temperature;BMP_pressure;BME280_temperature;BME280_humidity;BME280_pressure;Samples;Min_cycle;Max_cycle;Signal;HPM_P1;HPM_P2
2023/07/19 00:01:10;;;;;;;14.10;13.60;;;;;;;-141.02;100.00;41327.34;5135579;27;20275;-62
2023/07/19 00:03:37;;;;;;;13.63;13.13;;;;;;;-141.02;100.00;41381.09;5135441;27;20200;-60
2023/07/19 00:06:04;;;;;;;13.68;13.25;;;;;;;-141.02;100.00;41377.25;5135156;27;20199;-63
2023/07/19 00:08:32;;;;;;;13.02;12.63;;;;;;;-141.02;100.00;41348.47;5135126;27;20275;-59
2023/07/19 00:10:59;;;;;;;13.35;12.95;;;;;;;-141.02;100.00;41392.59;5135056;27;20291;-58
2023/07/19 00:13:28;;;;;;;13.48;13.07;;;;;;;-141.02;100.00;41390.69;5135362;27;20279;-60
2023/07/19 00:15:54;;;;;;;12.88;12.48;;;;;;;-141.02;100.00;41404.09;5135132;27;20196;-57
2023/07/19 00:18:21;;;;;;;12.90;12.50;;;;;;;-141.02;100.00;41394.50;5134939;27;20196;-65
2023/07/19 00:20:48;;;;;;;12.48;12.07;;;;;;;-141.02;100.00;41398.34;5134811;27;20592;-60
2023/07/19 00:23:15;;;;;;;13.05;12.65;;;;;;;-141.02;100.00;41346.53;5135023;27;20603;-61
2023/07/19 00:25:42;;;;;;;13.40;13.00;;;;;;;-141.02;100.00;41317.75;5135130;27;20196;-59
2023/07/19 00:28:09;;;;;;;13.07;12.68;;;;;;;-141.02;100.00;41354.22;5134987;27;20223;-58
2023/07/19 00:30:38;;;;;;;12.75;12.35;;;;;;;-141.02;100.00;41367.66;5134692;27;20657;-59
2023/07/19 00:33:05;;;;;;;12.98;12.57;;;;;;;-141.02;100.00;41381.09;5134555;27;20198;-60
2023/07/19 00:35:33;;;;;;;12.82;12.43;;;;;;;-141.02;100.00;41396.44;5134832;27;20204;-60
2023/07/19 00:38:00;;;;;;;13.30;12.90;;;;;;;-141.02;100.00;41375.31;5134427;27;20234;-57
2023/07/19 00:40:27;;;;;;;12.68;12.27;;;;;;;-141.02;100.00;41392.59;5134829;27;20228;-64
2023/07/19 00:46:17;;;;;;;13.20;12.80;;;;;;;-141.02;100.00;41350.38;5134379;27;20712;-65
2023/07/19 00:49:00;;;;;;;13.13;12.73;;;;;;;-141.02;100.00;41365.72;5134637;27;20198;-60
2023/07/19 00:51:27;;;;;;;13.30;12.90;;;;;;;-141.02;100.00;41350.38;5134539;27;20611;-65
2023/07/19 00:54:03;;;;;;;13.00;12.60;;;;;;;-141.02;100.00;41352.31;5134244;27;20202;-64
2023/07/19 00:56:39;;;;;;;13.13;12.73;;;;;;;-141.02;100.00;41346.53;5134827;27;20215;-61
2023/07/19 00:59:06;;;;;;;13.10;12.70;;;;;;;-141.02;100.00;41335.03;5134066;27;20188;-62
2023/07/19 01:01:36;;;;;;;13.40;13.00;;;;;;;-141.02;100.00;41348.47;5133431;27;20320;-60
2023/07/19 01:14:08;;;;;;;15.07;14.57;;;;;;;-141.02;100.00;41219.91;5133948;27;20175;-65
2023/07/19 01:17:06;;;;;;;15.82;15.23;;;;;;;-141.02;100.00;41177.69;5134025;27;20228;-65
2023/07/19 01:19:33;;;;;;;16.45;15.85;;;;;;;-141.02;100.00;41141.22;5134022;27;20227;-65
2023/07/19 01:22:01;;;;;;;16.80;16.10;;;;;;;-141.02;100.00;41158.50;5133363;27;20199;-62
2023/07/19 01:28:36;;;;;;;16.20;15.60;;;;;;;-141.02;100.00;41160.41;5133648;27;20205;-65
2023/07/19 01:34:26;;;;;;;16.65;15.95;;;;;;;-141.02;100.00;41158.50;5133570;27;20187;-65
2023/07/19 01:36:53;;;;;;;16.10;15.50;;;;;;;-141.02;100.00;41208.38;5133611;27;20216;-63
2023/07/19 01:39:52;;;;;;;15.43;14.82;;;;;;;-141.02;100.00;41239.09;5133677;27;20202;-60
2023/07/19 01:43:04;;;;;;;15.57;14.98;;;;;;;-141.02;100.00;41279.38;5133583;27;20222;-58
2023/07/19 01:49:21;;;;;;;15.68;15.07;;;;;;;-141.02;100.00;41208.38;5133394;27;20240;-65
2023/07/19 01:51:54;;;;;;;15.90;15.30;;;;;;;-141.02;100.00;41231.41;5133525;27;20192;-65
2023/07/19 01:55:01;;;;;;;15.30;14.70;;;;;;;-141.02;100.00;41193.03;5133386;27;20192;-63
2023/07/19 01:57:28;;;;;;;15.18;14.63;;;;;;;-141.02;100.00;41217.97;5132984;27;20219;-62
2023/07/19 01:59:56;;;;;;;15.32;14.73;;;;;;;-141.02;100.00;41223.72;5133450;27;20199;-65
2023/07/19 02:02:23;;;;;;;14.93;14.43;;;;;;;-141.02;100.00;41231.41;5133351;27;20223;-65
2023/07/19 02:04:51;;;;;;;14.90;14.40;;;;;;;-141.02;100.00;41258.28;5133011;27;20238;-65
2023/07/19 02:07:20;;;;;;;15.40;14.80;;;;;;;-141.02;100.00;41262.09;5133004;27;20253;-66
2023/07/19 02:09:49;;;;;;;14.60;14.10;;;;;;;-141.02;100.00;41267.88;5133206;27;20192;-66
2023/07/19 02:13:10;;;;;;;14.85;14.35;;;;;;;-141.02;100.00;41231.41;5133135;27;20636;-65
2023/07/19 02:16:18;;;;;;;14.80;14.30;;;;;;;-141.02;100.00;41233.31;5132950;27;20576;-65
2023/07/19 02:26:11;;;;;;;13.07;12.68;;;;;;;-141.02;100.00;41342.69;5120703;28;20239;-62
2023/07/19 02:28:38;;;;;;;12.30;11.90;;;;;;;-141.02;100.00;41388.75;5132794;28;20189;-57
2023/07/19 02:31:05;;;;;;;11.77;11.38;;;;;;;-141.02;100.00;41411.78;5132680;28;20195;-58
2023/07/19 02:33:32;;;;;;;11.50;11.20;;;;;;;-141.02;100.00;41450.16;5133008;28;20192;-65
2023/07/19 02:35:59;;;;;;;11.10;10.80;;;;;;;-141.02;100.00;41450.16;5132616;28;20206;-61
2023/07/19 02:38:26;;;;;;;10.90;10.60;;;;;;;-141.02;100.00;41511.56;5132937;27;20578;-60
2023/07/19 02:40:59;;;;;;;10.50;10.20;;;;;;;-141.02;100.00;41534.59;5132645;28;20583;-59
2023/07/19 02:43:44;;;;;;;10.38;10.07;;;;;;;-141.02;100.00;41557.63;5132933;28;20194;-60
2023/07/19 02:49:37;;;;;;;9.98;9.68;;;;;;;-141.02;100.00;41665.09;5132650;28;20221;-58
2023/07/19 02:52:11;;;;;;;10.13;9.82;;;;;;;-141.02;100.00;41695.81;5132891;27;20192;-65
2023/07/19 03:01:23;;;;;;;10.65;10.35;;;;;;;-141.02;100.00;42146.81;5132527;28;20187;-62
2023/07/19 03:04:46;;;;;;;10.90;10.60;;;;;;;-141.02;100.00;42302.28;5132803;27;20275;-60
2023/07/19 03:07:17;;;;;;;10.82;10.52;;;;;;;-141.02;100.00;42551.81;5132395;27;20196;-57
2023/07/19 03:10:00;;;;;;;10.85;10.55;;;;;;;-141.02;100.00;42780.25;5132281;28;20663;-66
2023/07/19 03:13:22;;;;;;;10.52;10.23;;;;;;;-141.02;100.00;42997.19;5132341;28;20236;-57
2023/07/19 03:19:20;;;;;;;10.30;10.00;;;;;;;-141.02;100.00;43465.66;5132427;28;20215;-62
2023/07/19 03:28:56;;;;;;;9.90;9.60;;;;;;;-141.02;100.00;43671.13;5136059;27;20308;-60
2023/07/19 03:34:46;;;;;;;11.40;11.10;;;;;;;-141.02;100.00;43530.97;5135968;27;20198;-58
2023/07/19 03:37:13;;;;;;;11.80;11.40;;;;;;;-141.02;100.00;43655.78;5135687;27;20307;-64
2023/07/19 03:39:40;;;;;;;11.82;11.43;;;;;;;-141.02;100.00;43642.31;5136117;27;20625;-64
2023/07/19 03:42:09;;;;;;;11.88;11.48;;;;;;;-141.02;100.00;43890.03;5135600;27;20200;-57
2023/07/19 03:45:06;;;;;;;12.20;11.80;;;;;;;-141.02;100.00;43903.50;5136976;27;20192;-56
2023/07/19 03:51:31;;;;;;;14.30;13.80;;;;;;;-141.02;100.00;44689.00;5135798;27;20176;-56
2023/07/19 03:53:58;;;;;;;14.90;14.30;;;;;;;-141.02;100.00;44656.34;5135869;27;20295;-58
2023/07/19 03:57:04;;;;;;;15.35;14.75;;;;;;;-141.02;100.00;44598.72;5135696;27;20251;-65
2023/07/19 03:59:33;;;;;;;15.90;15.20;;;;;;;-141.02;100.00;44500.78;5136547;27;20707;-57
2023/07/19 04:02:41;;;;;;;16.23;15.52;;;;;;;-141.02;100.00;44535.34;5135397;27;20288;-59
2023/07/19 04:05:10;;;;;;;16.65;15.95;;;;;;;-141.02;99.65;44587.19;5135674;27;20227;-60
2023/07/19 04:07:39;;;;;;;16.80;16.00;;;;;;;-141.02;99.88;44552.63;5135200;27;20689;-60
2023/07/19 04:10:06;;;;;;;16.35;15.55;;;;;;;-141.02;99.39;44606.41;5135177;27;20625;-59
2023/07/19 04:12:40;;;;;;;16.27;15.57;;;;;;;-141.02;97.68;44583.38;5135020;27;20692;-60
2023/07/19 04:15:08;;;;;;;17.40;16.60;;;;;;;-141.02;95.33;44698.59;5135457;27;20284;-64
2023/07/19 04:17:35;;;;;;;17.92;17.02;;;;;;;-141.02;94.21;44825.38;5134945;27;20220;-58
2023/07/19 04:20:02;;;;;;;17.80;17.00;;;;;;;-141.02;91.55;45186.53;5135253;27;20275;-60
2023/07/19 04:22:30;;;;;;;18.75;17.85;;;;;;;-141.02;89.48;45286.44;5134900;27;20205;-64
2023/07/19 04:24:59;;;;;;;19.02;18.05;;;;;;;-141.02;88.74;45169.25;5134649;27;20249;-61
2023/07/19 04:27:26;;;;;;;19.58;18.67;;;;;;;-141.02;88.31;45442.03;5134882;27;20275;-61
2023/07/19 04:29:53;;;;;;;19.10;18.20;;;;;;;-141.02;85.15;46043.44;5135073;27;20280;-58
2023/07/19 04:32:20;;;;;;;19.50;18.60;;;;;;;-141.02;85.30;45482.38;5135133;27;20192;-59
2023/07/19 04:34:47;;;;;;;19.05;18.05;;;;;;;-141.02;87.30;45372.88;5134593;27;20197;-62
2023/07/19 04:38:09;;;;;;;18.17;17.27;;;;;;;-141.02;82.86;45824.41;5134495;27;20235;-65
2023/07/19 04:40:37;;;;;;;19.30;18.30;;;;;;;-141.02;81.51;45828.22;5134939;27;20230;-58
2023/07/19 04:43:05;;;;;;;18.58;17.58;;;;;;;-141.02;80.04;46035.75;5134826;27;20271;-62
2023/07/19 04:45:32;;;;;;;19.35;18.35;;;;;;;-141.02;78.71;46577.69;5134450;27;20203;-61
2023/07/19 04:47:59;;;;;;;19.38;18.38;;;;;;;-141.02;75.24;46502.72;5134430;27;20231;-61
2023/07/19 04:50:27;;;;;;;19.85;18.83;;;;;;;-141.02;72.86;46769.88;5134311;27;20232;-64
2023/07/19 04:52:55;;;;;;;20.13;19.02;;;;;;;-141.02;72.92;45997.31;5134702;27;20196;-63
2023/07/19 04:55:23;;;;;;;20.30;19.20;;;;;;;-141.02;75.15;45401.69;5134185;27;20650;-65
2023/07/19 04:57:51;;;;;;;20.88;19.77;;;;;;;-141.02;77.41;45420.91;5134175;27;20781;-61
2023/07/19 05:00:19;;;;;;;20.33;19.23;;;;;;;-141.02;78.34;45336.38;5134153;27;20196;-62
2023/07/19 05:02:46;;;;;;;20.08;19.08;;;;;;;-141.02;75.89;45797.50;5134475;27;20596;-57
2023/07/19 05:05:14;;;;;;;19.52;18.52;;;;;;;-141.02;76.05;45624.56;5134315;27;20188;-64
2023/07/19 05:07:41;;;;;;;19.45;18.45;;;;;;;-141.02;75.05;45424.75;5134230;27;20677;-61
2023/07/19 05:10:09;;;;;;;19.27;18.33;;;;;;;-141.02;74.93;45820.56;5134267;27;20196;-59
2023/07/19 05:12:36;;;;;;;19.63;18.63;;;;;;;-141.02;71.88;46047.28;5134176;27;20234;-58
2023/07/19 05:15:06;;;;;;;19.55;18.55;;;;;;;-141.02;71.48;46297.09;5133845;27;20189;-65
2023/07/19 05:17:33;;;;;;;19.83;18.83;;;;;;;-141.02;69.26;46512.34;5133764;27;20662;-58
2023/07/19 05:20:00;;;;;;;20.30;19.30;;;;;;;-141.02;70.12;46543.09;5134121;27;20299;-62
2023/07/19 05:22:28;;;;;;;20.05;19.05;;;;;;;-141.02;73.35;46306.72;5134097;27;20262;-62
2023/07/19 05:24:57;;;;;;;20.15;19.15;;;;;;;-141.02;73.24;45764.81;5133511;27;20192;-58
2023/07/19 05:27:26;;;;;;;20.05;19.05;;;;;;;-141.02;75.34;45628.41;5133766;27;20279;-63
2023/07/19 05:29:54;;;;;;;19.52;18.52;;;;;;;-141.02;78.98;45499.69;5133894;27;20218;-60
2023/07/19 05:32:23;;;;;;;19.35;18.35;;;;;;;-141.02;78.30;45463.19;5133863;27;20275;-63
2023/07/19 05:34:50;;;;;;;19.40;18.40;;;;;;;-141.02;79.81;45290.28;5133818;27;20275;-64
2023/07/19 05:37:17;;;;;;;19.95;18.95;;;;;;;-141.02;79.73;45305.63;5133418;27;20574;-61
2023/07/19 05:39:44;;;;;;;20.08;19.08;;;;;;;-141.02;80.34;45238.41;5133372;27;20315;-65
2023/07/19 05:42:11;;;;;;;20.20;19.20;;;;;;;-141.02;82.95;45305.63;5133689;27;20220;-65
2023/07/19 05:44:38;;;;;;;19.60;18.60;;;;;;;-141.02;83.79;45274.91;5133398;27;20680;-64
2023/07/19 05:47:06;;;;;;;19.45;18.45;;;;;;;-141.02;83.76;45255.69;5132856;27;20283;-64
2023/07/19 05:49:35;;;;;;;20.10;19.10;;;;;;;-141.02;83.67;45413.22;5133598;27;20231;-65
2023/07/19 05:52:01;;;;;;;18.73;17.83;;;;;;;-141.02;82.54;45201.91;5133597;27;20200;-65
2023/07/19 05:54:29;;;;;;;18.40;17.40;;;;;;;-141.02;84.52;45363.28;5133513;27;20416;-66
2023/07/19 05:56:56;;;;;;;17.88;16.98;;;;;;;-141.02;85.95;45251.84;5133548;27;20196;-65
2023/07/19 05:59:23;;;;;;;17.92;17.02;;;;;;;-141.02;84.23;45173.09;5133035;27;20227;-63
2023/07/19 06:01:49;;;;;;;18.15;17.25;;;;;;;-141.02;83.22;45311.41;5133462;27;20224;-64
2023/07/19 06:04:16;;;;;;;18.13;17.23;;;;;;;-141.02;85.41;44944.47;5133412;27;20722;-65
2023/07/19 06:06:46;;;;;;;17.48;16.67;;;;;;;-141.02;89.65;45000.19;5133227;27;20193;-61
2023/07/19 06:09:13;;;;;;;17.55;16.75;;;;;;;-141.02;88.92;44994.44;5134159;27;20188;-66
2023/07/19 06:11:40;;;;;;;18.63;17.73;;;;;;;-141.02;87.04;44794.66;5132894;27;20280;-61
2023/07/19 06:14:07;;;;;;;18.23;17.42;;;;;;;-141.02;88.17;44998.28;5133255;27;20581;-64
2023/07/19 06:16:34;;;;;;;18.88;17.98;;;;;;;-141.02;85.23;44967.53;5133188;27;20196;-64
2023/07/19 06:19:01;;;;;;;19.65;18.65;;;;;;;-141.02;83.14;45102.00;5133092;28;20250;-66
2023/07/19 06:21:29;;;;;;;19.40;18.40;;;;;;;-141.02;82.64;45409.38;5133210;28;20271;-64
2023/07/19 06:23:58;;;;;;;19.33;18.33;;;;;;;-141.02;83.90;45634.16;5133182;28;20193;-65
2023/07/19 06:26:25;;;;;;;18.65;17.70;;;;;;;-141.02;83.03;45885.88;5132647;28;20769;-64
2023/07/19 06:28:52;;;;;;;20.30;19.30;;;;;;;-141.02;80.06;45607.28;5133119;27;20227;-65
2023/07/19 06:31:19;;;;;;;19.98;18.98;;;;;;;-141.02;81.00;45807.09;5132782;28;20227;-65
2023/07/19 06:33:45;;;;;;;20.27;19.27;;;;;;;-141.02;79.48;46183.72;5132797;28;20232;-64
2023/07/19 06:36:12;;;;;;;20.25;19.25;;;;;;;-141.02;78.70;46439.31;5132747;28;20725;-63
2023/07/19 06:38:39;;;;;;;20.20;19.20;;;;;;;-141.02;77.80;46166.44;5132966;28;20274;-57
2023/07/19 06:41:08;;;;;;;19.90;18.90;;;;;;;-141.02;79.08;46128.00;5132943;28;20275;-65
2023/07/19 06:43:35;;;;;;;19.55;18.55;;;;;;;-141.02;80.13;46208.72;5132990;28;20203;-66
2023/07/19 06:46:02;;;;;;;19.60;18.60;;;;;;;-141.02;79.17;46391.28;5133021;28;20279;-66
2023/07/19 06:48:29;;;;;;;19.73;18.73;;;;;;;-141.02;76.39;46739.13;5132612;28;20224;-65
2023/07/19 06:50:56;;;;;;;19.95;18.95;;;;;;;-141.02;74.55;47035.13;5132648;28;20634;-65
2023/07/19 06:53:23;;;;;;;19.58;18.48;;;;;;;-141.02;73.81;47123.53;5132883;28;20199;-66
2023/07/19 06:55:53;;;;;;;19.95;18.85;;;;;;;-141.02;75.01;46914.03;5132573;28;20193;-64
2023/07/19 06:58:21;;;;;;;20.48;19.38;;;;;;;-141.02;72.39;46789.09;5133122;27;20273;-65
2023/07/19 07:00:48;;;;;;;20.23;19.13;;;;;;;-141.02;71.79;46927.50;5136543;27;20288;-65
2023/07/19 07:03:15;;;;;;;20.08;18.98;;;;;;;-141.02;72.14;46989.00;5136500;27;20279;-65
2023/07/19 07:05:45;;;;;;;19.80;18.80;;;;;;;-141.02;73.11;46498.88;5136739;27;20195;-63
2023/07/19 07:08:12;;;;;;;20.10;19.00;;;;;;;-141.02;77.56;46896.72;5136327;27;20585;-64
2023/07/19 07:10:42;;;;;;;20.02;18.92;;;;;;;-141.02;72.52;46854.44;5136550;27;20227;-65
2023/07/19 07:13:09;;;;;;;20.85;19.75;;;;;;;-141.02;74.59;46973.63;5136326;27;20603;-65
2023/07/19 07:15:38;;;;;;;20.65;19.55;;;;;;;-141.02;72.74;46806.41;5136189;27;20199;-62
2023/07/19 07:18:05;;;;;;;21.05;19.95;;;;;;;-141.02;73.26;46862.13;5136063;27;20287;-61
2023/07/19 07:20:35;;;;;;;20.98;19.77;;;;;;;-141.02;73.93;47734.84;5136455;27;20224;-64
2023/07/19 07:23:02;;;;;;;21.13;19.92;;;;;;;-141.02;70.60;47219.66;5136318;27;20205;-64
2023/07/19 07:25:29;;;;;;;21.15;19.95;;;;;;;-141.02;68.13;47642.56;5136092;27;20311;-63
2023/07/19 07:27:56;;;;;;;21.08;19.88;;;;;;;-141.02;69.07;47804.06;5135903;27;20192;-64
2023/07/19 07:30:23;;;;;;;21.13;19.92;;;;;;;-141.02;67.43;47288.84;5136033;27;20287;-65
2023/07/19 07:32:52;;;;;;;20.77;19.67;;;;;;;-141.02;67.96;46816.00;5136203;27;20231;-59
2023/07/19 07:35:19;;;;;;;20.25;19.15;;;;;;;-141.02;67.10;47288.84;5135935;27;20666;-61
2023/07/19 07:37:46;;;;;;;20.15;19.05;;;;;;;-141.02;67.41;47138.91;5135806;27;20257;-61
2023/07/19 07:40:13;;;;;;;20.23;19.13;;;;;;;-141.02;68.19;47108.16;5135620;27;20697;-57
2023/07/19 07:42:40;;;;;;;20.20;19.10;;;;;;;-141.02;66.99;48107.84;5135844;27;20287;-58
2023/07/19 07:45:08;;;;;;;20.40;19.30;;;;;;;-141.02;65.28;48169.38;5135632;27;20692;-62
2023/07/19 07:47:36;;;;;;;20.15;19.05;;;;;;;-141.02;61.92;47684.88;5135946;27;20225;-60
2023/07/19 07:50:08;;;;;;;20.48;19.38;;;;;;;-141.02;63.63;47706.03;5135905;27;20192;-64
2023/07/19 07:52:35;;;;;;;21.45;20.25;;;;;;;-141.02;64.12;49175.16;5135937;27;20192;-60
2023/07/19 07:55:04;;;;;;;21.77;20.48;;;;;;;-141.02;62.95;49317.47;5135521;27;20287;-64
2023/07/19 07:57:34;;;;;;;21.60;20.30;;;;;;;-141.02;60.97;48780.88;5135348;27;20184;-63
2023/07/19 08:00:01;;;;;;;20.67;19.48;;;;;;;-141.02;61.29;47813.69;5135296;27;20273;-58
2023/07/19 08:02:28;;;;;;;21.65;20.35;;;;;;;-141.02;60.09;47500.31;5135674;27;20245;-64
2023/07/19 08:04:55;;;;;;;21.13;19.92;;;;;;;-141.02;62.30;47980.94;5135592;27;20271;-59
2023/07/19 08:07:25;;;;;;;21.08;19.88;;;;;;;-141.02;61.78;48169.38;5135528;27;20192;-61
2023/07/19 08:09:52;;;;;;;20.98;19.77;;;;;;;-141.02;58.95;47952.13;5135434;27;20256;-65
2023/07/19 08:12:20;;;;;;;21.30;20.00;;;;;;;-141.02;59.71;47538.75;5135136;27;20578;-62
2023/07/19 08:14:47;;;;;;;20.88;19.67;;;;;;;-141.02;58.26;47930.97;5135383;27;20295;-66
2023/07/19 08:17:15;;;;;;;21.60;20.30;;;;;;;-141.02;57.05;47060.13;5135058;27;20673;-63
2023/07/19 08:19:42;;;;;;;22.02;20.73;;;;;;;-141.02;57.52;46731.44;5135159;27;20227;-66
2023/07/19 08:22:26;;;;;;;21.77;20.48;;;;;;;-141.02;56.67;46581.53;5135260;27;20198;-62
2023/07/19 08:24:53;;;;;;;21.88;20.58;;;;;;;-141.02;56.47;47656.03;5134724;27;20682;-63
2023/07/19 08:27:20;;;;;;;21.95;20.65;;;;;;;-141.02;55.91;48355.91;5135028;27;20192;-60
2023/07/19 08:29:46;;;;;;;22.10;20.80;;;;;;;-141.02;55.14;47210.03;5135069;27;20192;-63
2023/07/19 08:32:14;;;;;;;22.20;20.90;;;;;;;-141.02;53.38;46762.19;5134796;27;20719;-60
2023/07/19 08:34:41;;;;;;;21.27;20.08;;;;;;;-141.02;53.02;46850.59;5135019;27;20196;-65
2023/07/19 08:37:08;;;;;;;21.92;20.63;;;;;;;-141.02;53.07;47392.66;5134895;27;20204;-63
2023/07/19 08:39:36;;;;;;;21.90;20.60;;;;;;;-141.02;52.24;46862.13;5134863;27;20228;-64
2023/07/19 08:42:04;;;;;;;21.90;20.60;;;;;;;-141.02;54.36;46879.44;5134693;27;20188;-61
2023/07/19 08:44:31;;;;;;;23.15;21.75;;;;;;;-141.02;52.36;46521.94;5134836;27;20635;-67
2023/07/19 08:46:58;;;;;;;21.92;20.63;;;;;;;-141.02;54.09;47100.47;5134804;27;20272;-65
2023/07/19 08:49:25;;;;;;;21.48;20.17;;;;;;;-141.02;52.21;47202.34;5134405;27;20196;-66
2023/07/19 08:51:54;;;;;;;21.63;20.33;;;;;;;-141.02;50.07;47265.78;5134351;27;20279;-60
2023/07/19 08:54:20;;;;;;;22.00;20.67;;;;;;;-141.02;51.57;48015.56;5134312;27;20283;-64
2023/07/19 08:56:49;;;;;;;22.13;20.83;;;;;;;-141.02;50.73;46731.44;5134316;27;20199;-64
2023/07/19 08:59:16;;;;;;;21.92;20.63;;;;;;;-141.02;51.00;46777.56;5134116;27;20776;-66
2023/07/19 09:01:43;;;;;;;21.60;20.23;;;;;;;-141.02;50.98;48294.38;5134441;27;20193;-66
2023/07/19 09:04:11;;;;;;;21.77;20.42;;;;;;;-141.02;49.89;47796.38;5134499;27;20287;-59
2023/07/19 09:06:40;;;;;;;21.75;20.35;;;;;;;-141.02;51.05;47998.25;5134017;27;20656;-66
2023/07/19 09:09:10;;;;;;;22.20;20.80;;;;;;;-141.02;48.99;47000.53;5134067;27;20287;-63
2023/07/19 09:11:37;;;;;;;22.00;20.60;;;;;;;-141.02;49.40;46731.44;5134233;27;20196;-64
2023/07/19 09:14:05;;;;;;;22.08;20.67;;;;;;;-141.02;47.87;46573.84;5133931;27;20718;-66
2023/07/19 09:16:35;;;;;;;37.22;35.08;;;;;;;-141.02;49.31;45893.56;5133794;27;20279;-62
2023/07/19 09:19:02;;;;;;;39.42;37.10;;;;;;;-141.02;50.53;46231.75;5133816;27;20240;-65
2023/07/19 09:21:34;;;;;;;47.83;45.22;;;;;;;-141.02;48.35;46216.38;5133311;27;20202;-65
2023/07/19 09:24:04;;;;;;;38.97;36.58;;;;;;;-141.02;49.04;46377.81;5134005;27;20284;-66
2023/07/19 09:26:45;;;;;;;22.10;20.70;;;;;;;-141.02;49.28;46739.13;5133525;27;20268;-66
2023/07/19 09:29:13;;;;;;;22.45;21.05;;;;;;;-141.02;48.73;46343.22;5133673;27;20195;-66
2023/07/19 09:31:54;;;;;;;22.38;20.98;;;;;;;-141.02;49.17;46158.75;5133591;27;20283;-63
2023/07/19 09:34:26;;;;;;;22.48;21.08;;;;;;;-141.02;48.76;46272.13;5133605;27;20200;-61
2023/07/19 09:36:54;;;;;;;22.33;21.02;;;;;;;-141.02;51.54;46354.75;5133852;27;20189;-65
2023/07/19 09:39:21;;;;;;;22.45;21.05;;;;;;;-141.02;50.17;46327.84;5133413;27;20295;-66
2023/07/19 09:41:49;;;;;;;22.45;21.05;;;;;;;-141.02;51.02;46527.72;5134065;27;20196;-66
2023/07/19 09:44:18;;;;;;;22.50;21.10;;;;;;;-141.02;51.86;47081.25;5133388;27;20200;-61
2023/07/19 09:46:46;;;;;;;22.20;20.80;;;;;;;-141.02;51.52;46470.06;5133402;27;20287;-64
2023/07/19 09:49:14;;;;;;;22.00;20.70;;;;;;;-141.02;51.29;47188.91;5133288;27;20199;-66
2023/07/19 09:51:43;;;;;;;22.05;20.70;;;;;;;-141.02;50.06;47834.84;5133587;27;20196;-65
2023/07/19 09:54:11;;;;;;;39.50;37.10;;;;;;;-141.02;51.37;46785.25;5133508;27;20226;-60
2023/07/19 09:56:40;;;;;;;33.72;31.73;;;;;;;-141.02;51.71;46954.41;5133500;27;20188;-62
2023/07/19 09:59:14;;;;;;;38.63;36.28;;;;;;;-141.02;52.11;47146.63;5133163;27;20221;-63
2023/07/19 10:01:43;;;;;;;33.53;31.63;;;;;;;-141.02;50.42;46508.50;5133126;27;20235;-65
2023/07/19 10:04:24;;;;;;;38.38;36.10;;;;;;;-141.02;51.14;46643.03;5133131;27;20621;-61
2023/07/19 10:06:51;;;;;;;37.92;35.55;;;;;;;-141.02;49.82;47112.00;5133048;27;20196;-65
2023/07/19 10:09:37;;;;;;;38.05;35.65;;;;;;;-141.02;49.89;47896.34;5133086;27;20283;-66
2023/07/19 10:12:08;;;;;;;36.40;34.10;;;;;;;-141.02;48.94;48400.13;5133032;27;20196;-66
2023/07/19 10:14:35;;;;;;;38.08;35.67;;;;;;;-141.02;51.17;47285.00;5132794;27;20537;-66
2023/07/19 10:17:06;;;;;;;38.33;35.92;;;;;;;-141.02;50.05;47006.28;5132888;27;20738;-60
2023/07/19 10:19:35;;;;;;;38.83;36.33;;;;;;;-141.02;50.61;46892.88;5132794;27;20204;-63
2023/07/19 10:22:04;;;;;;;22.05;20.55;;;;;;;-141.02;50.38;47682.94;5133138;28;20266;-63
2023/07/19 10:24:32;;;;;;;22.20;20.70;;;;;;;-141.02;49.66;47050.50;5133050;28;20223;-58
2023/07/19 10:27:03;;;;;;;21.13;19.73;;;;;;;-141.02;49.57;46477.75;5132419;28;20270;-63
2023/07/19 10:29:40;;;;;;;21.73;20.23;;;;;;;-141.02;49.81;47131.22;5132969;27;20249;-59
2023/07/19 10:32:09;;;;;;;22.00;20.50;;;;;;;-141.02;49.94;46535.41;5132702;27;20278;-61
2023/07/19 10:34:36;;;;;;;22.42;20.92;;;;;;;-141.02;49.83;47338.84;5137359;27;20253;-64
2023/07/19 10:37:04;;;;;;;21.90;20.40;;;;;;;-141.02;48.84;47261.94;5137134;27;20623;-58
2023/07/19 10:39:31;;;;;;;22.70;21.15;;;;;;;-141.02;48.40;48378.97;5137095;27;20609;-66
2023/07/19 10:41:58;;;;;;;21.05;19.75;;;;;;;-141.02;49.19;48515.50;5136643;27;20674;-61
2023/07/19 10:44:27;;;;;;;22.90;21.42;;;;;;;-141.02;48.04;48129.00;5136768;27;20196;-65
2023/07/19 10:46:55;;;;;;;23.15;21.67;;;;;;;-141.02;48.81;49250.16;5135753;27;20658;-64
2023/07/19 10:49:24;;;;;;;24.35;22.85;;;;;;;-141.02;47.35;48878.97;5136908;27;20572;-67
2023/07/19 10:51:54;;;;;;;24.45;22.95;;;;;;;-141.02;47.13;48830.88;5136612;27;20231;-67
2023/07/19 10:54:22;;;;;;;25.33;23.80;;;;;;;-141.02;46.30;48894.34;5136770;27;20196;-63
2023/07/19 10:56:50;;;;;;;22.42;21.02;;;;;;;-141.02;48.00;50583.34;5136934;27;20651;-67
2023/07/19 10:59:17;;;;;;;22.85;21.45;;;;;;;-141.02;47.08;49757.97;5136274;27;20203;-64
2023/07/19 11:01:44;;;;;;;47.47;44.58;;;;;;;-141.02;44.92;49007.81;5136516;27;20192;-59
2023/07/19 11:04:11;;;;;;;76.75;72.55;;;;;;;-141.02;47.12;47952.13;5136771;27;20196;-62
2023/07/19 11:06:54;;;;;;;72.18;68.18;;;;;;;-141.02;47.57;47450.34;5136256;27;20282;-60
2023/07/19 11:09:22;;;;;;;45.22;42.45;;;;;;;-141.02;48.03;47909.81;5136629;27;20626;-68
2023/07/19 11:11:50;;;;;;;39.58;37.28;;;;;;;-141.02;46.31;48430.88;5136294;27;20192;-63
2023/07/19 11:14:31;;;;;;;25.13;23.63;;;;;;;-141.02;47.04;48332.81;5136531;27;20218;-65
2023/07/19 11:16:58;;;;;;;25.13;23.63;;;;;;;-141.02;45.60;48115.53;5136514;27;20196;-67
2023/07/19 11:19:36;;;;;;;25.20;23.70;;;;;;;-141.02;47.51;48373.19;5136378;27;20253;-61
2023/07/19 11:22:05;;;;;;;24.95;23.45;;;;;;;-141.02;46.15;47815.59;5136448;27;20275;-61
2023/07/19 11:24:36;;;;;;;23.58;22.17;;;;;;;-141.02;46.87;48903.97;5136550;27;20224;-65
2023/07/19 11:27:03;;;;;;;25.10;23.60;;;;;;;-141.02;45.99;47544.53;5135864;27;20223;-66
2023/07/19 11:29:31;;;;;;;24.45;22.95;;;;;;;-141.02;47.48;48307.81;5136681;27;20204;-59
2023/07/19 11:32:16;;;;;;;23.27;21.80;;;;;;;-141.02;45.79;48455.88;5135881;27;20658;-63
2023/07/19 11:34:48;;;;;;;22.98;21.58;;;;;;;-141.02;45.86;48765.50;5136262;27;20599;-65
2023/07/19 11:37:20;;;;;;;23.23;21.73;;;;;;;-141.02;46.12;51181.81;5136198;27;20192;-66
2023/07/19 11:39:49;;;;;;;23.65;22.15;;;;;;;-141.02;44.21;48692.41;5135819;27;20306;-65
2023/07/19 11:42:16;;;;;;;23.60;22.10;;;;;;;-141.02;44.24;48740.50;5136007;27;20223;-64
2023/07/19 11:44:44;;;;;;;23.27;21.77;;;;;;;-141.02;45.25;48755.88;5135246;27;20235;-62
2023/07/19 11:47:12;;;;;;;23.25;21.75;;;;;;;-141.02;45.28;47950.19;5135566;27;20287;-62
2023/07/19 11:49:39;;;;;;;24.55;23.05;;;;;;;-141.02;46.05;49115.53;5135672;27;20195;-64
2023/07/19 11:52:07;;;;;;;25.55;23.95;;;;;;;-141.02;45.17;48580.88;5135822;27;20199;-65
2023/07/19 11:54:35;;;;;;;25.67;24.08;;;;;;;-141.02;43.87;48953.97;5135542;27;20227;-65
2023/07/19 11:57:02;;;;;;;25.55;23.95;;;;;;;-141.02;44.95;49213.63;5135777;27;20241;-60
2023/07/19 11:59:29;;;;;;;24.95;23.45;;;;;;;-141.02;45.89;48119.38;5135644;27;20610;-63
2023/07/19 12:01:56;;;;;;;24.65;23.15;;;;;;;-141.02;46.21;47905.97;5135454;27;20191;-68
2023/07/19 12:04:23;;;;;;;24.58;23.08;;;;;;;-141.02;45.97;48021.31;5135321;27;20662;-64
2023/07/19 12:06:50;;;;;;;25.15;23.55;;;;;;;-141.02;45.28;48269.38;5135603;27;20225;-66
2023/07/19 12:09:19;;;;;;;24.92;23.40;;;;;;;-141.02;46.07;48415.50;5135201;27;20658;-68
2023/07/19 12:11:47;;;;;;;24.27;22.77;;;;;;;-141.02;46.24;48303.97;5135485;27;20290;-66
2023/07/19 12:14:16;;;;;;;23.65;22.25;;;;;;;-141.02;45.52;48869.34;5135094;27;20196;-67